Time;durP1;ratioP1;P1;durP2;ratioP2;P2;SDS_P1;SDS_P2;PMS_P1;PMS_P2;Temp;Humidity;BMP_temperature;BMP_pressure;BME280_temperature;BME280_humidity;BME280_pressure;Samples;Min_cycle;Max_cycle;Signal;HPM_P1;HPM_P2
2022/03/07 00:00:30;;;;;;;16.73;10.10;;;;;;;-3.10;100.00;102680.25;5324406;28;20024;-77
2022/03/07 00:03:02;;;;;;;20.20;12.32;;;;;;;-3.04;100.00;102689.78;5325724;27;20094;-77
2022/03/07 00:05:34;;;;;;;16.02;10.18;;;;;;;-3.11;100.00;102678.50;5324097;28;20115;-77
2022/03/07 00:08:05;;;;;;;15.52;11.55;;;;;;;-3.20;100.00;102681.19;5324734;28;20549;-77
2022/03/07 00:10:36;;;;;;;13.85;10.90;;;;;;;-3.22;100.00;102679.47;5324025;27;20062;-77
2022/03/07 00:13:07;;;;;;;15.38;11.57;;;;;;;-3.26;100.00;102684.69;5322093;28;20086;-77
2022/03/07 00:15:39;;;;;;;15.93;11.18;;;;;;;-3.25;100.00;102677.72;5324532;28;20024;-77
2022/03/07 00:18:10;;;;;;;16.02;10.98;;;;;;;-3.26;100.00;102671.66;5324195;27;20025;-77
2022/03/07 00:20:42;;;;;;;17.50;11.43;;;;;;;-3.39;100.00;102677.78;5324102;28;20480;-77
2022/03/07 00:23:15;;;;;;;18.75;11.30;;;;;;;-3.39;100.00;102677.78;5324497;28;20040;-78
2022/03/07 00:25:46;;;;;;;21.58;13.05;;;;;;;-3.37;100.00;102678.66;5304783;28;20042;-77
2022/03/07 00:28:17;;;;;;;19.48;12.60;;;;;;;-3.52;100.00;102673.53;5305879;28;20048;-77
2022/03/07 00:30:48;;;;;;;18.40;12.50;;;;;;;-3.40;100.00;102680.41;5322590;28;41591;-77
2022/03/07 00:33:20;;;;;;;19.80;12.88;;;;;;;-3.33;100.00;102685.59;5324752;28;20032;-77
2022/03/07 00:35:51;;;;;;;18.67;13.90;;;;;;;-3.48;100.00;102688.28;5305976;28;20089;-77
2022/03/07 00:38:23;;;;;;;21.30;14.25;;;;;;;-3.54;100.00;102688.28;5324121;28;20099;-77
2022/03/07 00:40:54;;;;;;;22.48;13.65;;;;;;;-3.65;100.00;102689.19;5323064;28;20048;-77
2022/03/07 00:43:26;;;;;;;28.10;15.35;;;;;;;-3.62;100.00;102688.34;5323981;28;20442;-77
2022/03/07 00:45:57;;;;;;;24.30;14.73;;;;;;;-3.55;100.00;102684.81;5323808;28;20408;-77
2022/03/07 00:48:28;;;;;;;18.75;13.60;;;;;;;-3.78;100.00;102666.66;5321821;27;20035;-77
2022/03/07 00:51:00;;;;;;;27.58;16.25;;;;;;;-3.69;100.00;102671.84;5317227;27;20051;-77
2022/03/07 00:53:31;;;;;;;19.52;12.98;;;;;;;-3.76;100.00;102690.13;5345829;27;20138;-79
2022/03/07 00:56:03;;;;;;;35.75;18.27;;;;;;;-3.54;100.00;102690.91;5344364;27;20032;-77
2022/03/07 00:58:34;;;;;;;36.10;18.05;;;;;;;-3.43;100.00;102694.34;5345177;27;20031;-77
2022/03/07 01:01:05;;;;;;;36.33;18.38;;;;;;;-3.71;100.00;102698.81;5344877;27;20430;-77
2022/03/07 01:03:36;;;;;;;25.00;16.15;;;;;;;-3.74;100.00;102684.03;5346706;27;20020;-77
2022/03/07 01:06:08;;;;;;;23.92;16.38;;;;;;;-3.71;100.00;102693.59;5345037;27;20035;-77
2022/03/07 01:08:39;;;;;;;27.35;15.98;;;;;;;-3.73;100.00;102690.13;5345158;27;20024;-77
2022/03/07 01:11:11;;;;;;;39.97;20.73;;;;;;;-3.44;100.00;102692.59;5343737;27;20043;-77
2022/03/07 01:13:42;;;;;;;41.95;22.38;;;;;;;-3.31;100.00;102702.13;5345231;27;20028;-77
2022/03/07 01:16:13;;;;;;;25.95;16.40;;;;;;;-3.75;100.00;102704.91;5344877;27;20023;-77
2022/03/07 01:18:45;;;;;;;24.15;15.52;;;;;;;-4.07;100.00;102698.88;5345077;27;20080;-77
2022/03/07 01:21:16;;;;;;;22.27;14.38;;;;;;;-4.04;100.00;102685.00;5344456;27;20483;-77
2022/03/07 01:23:47;;;;;;;22.35;14.98;;;;;;;-3.95;100.00;102695.41;5344597;27;20028;-76
2022/03/07 01:26:19;;;;;;;29.90;18.20;;;;;;;-4.02;100.00;102696.28;5343802;27;20027;-77
2022/03/07 01:28:50;;;;;;;31.05;17.05;;;;;;;-4.28;100.00;102699.78;5344161;27;20015;-77
2022/03/07 01:31:21;;;;;;;32.08;18.02;;;;;;;-4.34;100.00;102683.31;5344934;27;20016;-77
2022/03/07 01:33:52;;;;;;;37.83;18.88;;;;;;;-4.06;100.00;102700.63;5343767;27;20868;-77
2022/03/07 01:36:24;;;;;;;23.48;15.18;;;;;;;-4.18;100.00;102701.53;5342721;27;20076;-77
2022/03/07 01:38:55;;;;;;;41.35;19.42;;;;;;;-4.04;100.00;102680.66;5344388;27;20016;-77
2022/03/07 01:41:26;;;;;;;39.97;20.98;;;;;;;-4.14;100.00;102683.28;5343645;27;20502;-77
2022/03/07 01:43:57;;;;;;;39.13;19.80;;;;;;;-4.13;100.00;102693.72;5344139;27;20483;-77
2022/03/07 01:46:32;;;;;;;34.08;18.38;;;;;;;-4.29;100.00;102685.03;5344397;27;20028;-77
2022/03/07 01:49:03;;;;;;;26.63;16.73;;;;;;;-4.36;100.00;102685.94;5344278;27;20023;-77
2022/03/07 01:51:35;;;;;;;35.20;18.30;;;;;;;-4.42;100.00;102692.00;5339313;27;20048;-77
2022/03/07 01:54:08;;;;;;;31.25;17.27;;;;;;;-4.39;100.00;102694.59;5333435;27;20059;-77
2022/03/07 01:56:42;;;;;;;20.33;13.98;;;;;;;-4.65;100.00;102693.75;5326188;27;20325;-77
2022/03/07 01:59:17;;;;;;;21.10;13.20;;;;;;;-4.73;100.00;102685.94;5324280;27;20040;-77
2022/03/07 02:01:49;;;;;;;18.00;12.82;;;;;;;-4.99;100.00;102685.91;5324113;27;20369;-77
2022/03/07 02:04:21;;;;;;;20.75;12.95;;;;;;;-4.93;100.00;102693.72;5324165;27;20028;-77
2022/03/07 02:06:52;;;;;;;18.33;12.43;;;;;;;-5.09;100.00;102684.16;5323678;27;20051;-77
2022/03/07 02:09:23;;;;;;;23.05;14.10;;;;;;;-5.05;100.00;102688.47;5316802;28;20016;-77
2022/03/07 02:11:54;;;;;;;19.58;13.35;;;;;;;-5.09;100.00;102678.94;5322364;27;20020;-77
2022/03/07 02:14:26;;;;;;;22.33;14.38;;;;;;;-5.18;100.00;102667.66;5324068;28;20047;-77
2022/03/07 02:16:57;;;;;;;23.25;14.30;;;;;;;-5.18;100.00;102680.66;5323819;27;20020;-77
2022/03/07 02:19:28;;;;;;;22.02;14.10;;;;;;;-5.09;100.00;102682.41;5324257;27;20090;-77
2022/03/07 02:22:01;;;;;;;24.73;14.52;;;;;;;-5.16;100.00;102676.31;5323520;27;20062;-77
2022/03/07 02:24:32;;;;;;;21.83;14.65;;;;;;;-5.09;100.00;102678.94;5323584;28;20031;-77
2022/03/07 02:27:09;;;;;;;27.52;15.13;;;;;;;-5.23;100.00;102671.09;5322585;27;20016;-77
2022/03/07 02:29:41;;;;;;;30.42;16.02;;;;;;;-5.28;100.00;102675.44;5323446;27;20023;-77
2022/03/07 02:32:13;;;;;;;34.72;17.90;;;;;;;-5.05;100.00;102673.75;5323245;27;20032;-77
2022/03/07 02:34:44;;;;;;;26.08;15.82;;;;;;;-5.08;100.00;102672.84;5325999;28;20035;-77
2022/03/07 02:37:16;;;;;;;32.65;17.52;;;;;;;-5.06;100.00;102669.41;5325755;27;20033;-77
2022/03/07 02:39:47;;;;;;;29.15;16.10;;;;;;;-5.27;100.00;102677.19;5325675;27;20510;-77
2022/03/07 02:42:18;;;;;;;27.42;16.20;;;;;;;-5.02;100.00;102673.75;5326176;28;20433;-77
2022/03/07 02:44:50;;;;;;;31.20;16.63;;;;;;;-5.14;100.00;102671.13;5326243;27;20396;-77
2022/03/07 02:47:23;;;;;;;25.52;15.20;;;;;;;-5.21;100.00;102670.22;5325893;27;20069;-77
2022/03/07 02:49:54;;;;;;;33.22;17.00;;;;;;;-5.10;100.00;102670.28;5326168;27;20047;-78
2022/03/07 02:52:25;;;;;;;27.10;17.23;;;;;;;-4.97;100.00;102676.38;5325424;27;20488;-78
2022/03/07 02:54:57;;;;;;;32.03;16.92;;;;;;;-5.14;100.00;102672.00;5324894;28;20035;-78
2022/03/07 02:57:28;;;;;;;33.55;17.23;;;;;;;-4.91;100.00;102672.88;5326329;28;20134;-78
2022/03/07 02:59:59;;;;;;;26.77;16.23;;;;;;;-5.02;100.00;102672.88;5325469;28;20031;-78
2022/03/07 03:02:31;;;;;;;34.00;19.23;;;;;;;-4.98;100.00;102670.28;5324600;27;20024;-78
2022/03/07 03:05:02;;;;;;;27.17;18.13;;;;;;;-5.09;100.00;102672.00;5325605;28;20016;-78
2022/03/07 03:07:33;;;;;;;29.15;18.10;;;;;;;-4.99;100.00;102671.16;5326265;28;20028;-78
2022/03/07 03:10:06;;;;;;;29.80;18.73;;;;;;;-4.71;100.00;102665.09;5306505;28;20105;-78
2022/03/07 03:12:37;;;;;;;28.80;17.35;;;;;;;-4.96;100.00;102667.66;5325352;28;20028;-78
2022/03/07 03:15:09;;;;;;;28.33;17.42;;;;;;;-5.01;100.00;102664.22;5325197;28;20027;-78
2022/03/07 03:17:42;;;;;;;28.75;18.10;;;;;;;-5.04;100.00;102669.41;5325599;28;20043;-78
2022/03/07 03:20:14;;;;;;;30.85;18.50;;;;;;;-4.82;100.00;102671.19;5325574;28;20036;-78
2022/03/07 03:22:46;;;;;;;33.47;18.13;;;;;;;-4.84;100.00;102666.81;5307926;28;20032;-78
2022/03/07 03:25:17;;;;;;;29.92;18.75;;;;;;;-5.03;100.00;102668.53;5324038;28;20170;-78
2022/03/07 03:27:49;;;;;;;26.95;17.77;;;;;;;-4.85;100.00;102668.56;5325765;28;20051;-78
2022/03/07 03:30:20;;;;;;;29.70;17.48;;;;;;;-4.86;100.00;102678.97;5325779;28;20392;-78
2022/03/07 03:32:51;;;;;;;30.58;18.27;;;;;;;-4.84;100.00;102672.03;5305760;28;20545;-78
2022/03/07 03:35:23;;;;;;;24.63;17.30;;;;;;;-4.97;100.00;102671.16;5324590;28;20028;-78
2022/03/07 03:37:54;;;;;;;27.30;16.50;;;;;;;-4.90;100.00;102670.28;5322556;28;20036;-78
2022/03/07 03:40:25;;;;;;;32.03;17.73;;;;;;;-4.87;100.00;102675.50;5324968;28;20023;-78
2022/03/07 03:42:56;;;;;;;29.63;18.45;;;;;;;-4.91;100.00;102678.09;5307006;28;20040;-78
2022/03/07 03:45:28;;;;;;;28.45;18.40;;;;;;;-4.97;100.00;102669.41;5324584;27;20108;-78
2022/03/07 03:48:00;;;;;;;26.80;17.60;;;;;;;-4.98;100.00;102682.41;5325679;28;20097;-78
2022/03/07 03:50:31;;;;;;;29.50;18.08;;;;;;;-5.00;100.00;102677.22;5329459;27;20043;-78
2022/03/07 03:53:03;;;;;;;32.08;18.45;;;;;;;-4.99;100.00;102668.56;5346773;27;20075;-78
2022/03/07 03:55:34;;;;;;;30.40;17.65;;;;;;;-4.88;100.00;102672.91;5345768;27;20024;-78
2022/03/07 03:58:05;;;;;;;29.48;17.95;;;;;;;-4.84;100.00;102674.63;5345224;27;20027;-78
2022/03/07 04:00:37;;;;;;;26.67;17.98;;;;;;;-4.83;100.00;102684.19;5346078;27;20028;-78
2022/03/07 04:03:08;;;;;;;34.15;18.35;;;;;;;-4.83;100.00;102678.97;5347034;27;20030;-78
2022/03/07 04:05:39;;;;;;;32.08;19.33;;;;;;;-4.85;100.00;102688.53;5346336;27;20475;-78
2022/03/07 04:08:10;;;;;;;27.17;17.75;;;;;;;-4.83;100.00;102685.06;5347297;27;20031;-78
2022/03/07 04:10:42;;;;;;;29.55;19.63;;;;;;;-4.79;100.00;102691.13;5346242;27;20081;-78
2022/03/07 04:13:13;;;;;;;30.73;17.83;;;;;;;-4.84;100.00;102667.72;5347045;27;20055;-78
2022/03/07 04:15:44;;;;;;;32.33;19.38;;;;;;;-4.59;100.00;102680.72;5347004;27;20026;-78
2022/03/07 04:18:16;;;;;;;36.33;18.90;;;;;;;-4.39;100.00;102684.19;5345281;27;20035;-78
2022/03/07 04:20:47;;;;;;;34.58;20.58;;;;;;;-4.48;100.00;102668.56;5345699;27;20015;-78
2022/03/07 04:23:21;;;;;;;35.72;21.02;;;;;;;-4.35;100.00;102682.44;5345660;27;20081;-78
2022/03/07 04:25:52;;;;;;;34.22;21.10;;;;;;;-4.37;100.00;102666.78;5348473;27;20047;-78
2022/03/07 04:28:23;;;;;;;35.10;20.63;;;;;;;-4.37;100.00;102668.53;5347665;27;20248;-78
2022/03/07 04:30:54;;;;;;;35.05;20.95;;;;;;;-4.47;100.00;102665.09;5346265;27;20024;-78
2022/03/07 04:33:26;;;;;;;34.35;20.42;;;;;;;-4.47;100.00;102665.09;5345848;27;20032;-78
2022/03/07 04:35:58;;;;;;;30.40;19.58;;;;;;;-4.43;100.00;102676.38;5346876;27;20952;-78
2022/03/07 04:38:29;;;;;;;32.38;19.92;;;;;;;-4.35;100.00;102669.41;5346605;27;20015;-78
2022/03/07 04:41:00;;;;;;;30.58;19.73;;;;;;;-4.43;100.00;102666.81;5343859;27;20065;-78
2022/03/07 04:43:32;;;;;;;39.63;22.60;;;;;;;-4.40;100.00;102676.34;5346806;27;20027;-78
2022/03/07 04:46:07;;;;;;;35.33;19.80;;;;;;;-4.46;100.00;102674.63;5345364;27;20030;-78
2022/03/07 04:48:38;;;;;;;28.90;19.45;;;;;;;-4.47;100.00;102685.03;5346815;27;20112;-78
2022/03/07 04:51:10;;;;;;;31.67;19.45;;;;;;;-4.51;100.00;102680.72;5329253;27;20039;-78
2022/03/07 04:53:41;;;;;;;30.25;19.58;;;;;;;-4.57;100.00;102674.63;5311015;28;20492;-78
2022/03/07 04:56:13;;;;;;;30.17;19.70;;;;;;;-4.43;100.00;102684.19;5292154;28;20044;-78
2022/03/07 04:58:44;;;;;;;30.85;19.35;;;;;;;-4.43;100.00;102676.38;5308828;28;20099;-78
2022/03/07 05:01:15;;;;;;;27.98;18.80;;;;;;;-4.50;100.00;102679.88;5306586;27;20103;-78
2022/03/07 05:03:47;;;;;;;31.52;19.17;;;;;;;-4.65;100.00;102672.91;5319256;27;20024;-78
2022/03/07 05:06:18;;;;;;;26.67;17.40;;;;;;;-4.72;100.00;102679.00;5321597;28;20750;-78
2022/03/07 05:08:49;;;;;;;26.23;17.50;;;;;;;-5.00;100.00;102672.00;5323291;27;20023;-78
2022/03/07 05:11:20;;;;;;;27.42;18.55;;;;;;;-4.81;100.00;102677.25;5323142;27;20036;-78
2022/03/07 05:13:52;;;;;;;27.08;17.42;;;;;;;-4.94;100.00;102679.84;5325371;27;20032;-77
2022/03/07 05:16:23;;;;;;;29.25;17.98;;;;;;;-4.97;100.00;102674.63;5324538;27;20441;-78
2022/03/07 05:18:55;;;;;;;26.50;17.83;;;;;;;-5.04;100.00;102674.63;5323653;28;20043;-78
2022/03/07 05:21:26;;;;;;;29.90;18.17;;;;;;;-5.03;100.00;102673.75;5323438;28;20110;-78
2022/03/07 05:23:57;;;;;;;27.13;18.70;;;;;;;-5.04;100.00;102672.88;5323975;27;20023;-78
2022/03/07 05:26:29;;;;;;;31.48;17.30;;;;;;;-5.06;100.00;102677.22;5322987;27;20035;-78
2022/03/07 05:29:00;;;;;;;26.10;17.38;;;;;;;-5.39;100.00;102673.66;5322481;28;41768;-78
2022/03/07 05:31:32;;;;;;;30.13;17.85;;;;;;;-5.30;100.00;102675.41;5323422;28;20036;-78
2022/03/07 05:34:03;;;;;;;26.30;16.27;;;;;;;-5.36;100.00;102671.09;5304075;28;20020;-78
2022/03/07 05:36:34;;;;;;;25.10;17.38;;;;;;;-5.36;100.00;102675.41;5305078;28;20024;-78
2022/03/07 05:39:06;;;;;;;29.98;17.83;;;;;;;-5.47;100.00;102677.97;5324265;28;20020;-78
2022/03/07 05:41:37;;;;;;;29.38;17.25;;;;;;;-5.35;100.00;102679.75;5322608;28;20032;-78
2022/03/07 05:44:08;;;;;;;28.50;17.73;;;;;;;-5.52;100.00;102677.09;5305140;28;20452;-78
2022/03/07 05:46:39;;;;;;;37.25;21.40;;;;;;;-5.33;100.00;102676.28;5323377;28;20024;-78
2022/03/07 05:49:11;;;;;;;32.90;18.58;;;;;;;-4.75;100.00;102688.53;5323844;28;20020;-78
2022/03/07 05:51:43;;;;;;;34.58;19.15;;;;;;;-4.33;100.00;102685.94;5322499;27;20400;-78
2022/03/07 05:54:15;;;;;;;43.65;23.52;;;;;;;-4.02;100.00;102678.91;5323465;28;20024;-78
2022/03/07 05:56:46;;;;;;;50.60;28.17;;;;;;;-4.30;100.00;102678.09;5320989;28;20035;-78
2022/03/07 05:59:18;;;;;;;45.03;23.13;;;;;;;-4.07;100.00;102685.84;5322527;28;20498;-78
2022/03/07 06:01:49;;;;;;;50.25;27.15;;;;;;;-4.26;100.00;102681.56;5323595;27;20040;-78
2022/03/07 06:04:21;;;;;;;45.65;25.70;;;;;;;-4.44;100.00;102685.91;5304882;28;20025;-78
2022/03/07 06:06:52;;;;;;;44.15;25.73;;;;;;;-4.56;100.00;102694.63;5322445;28;20402;-78
2022/03/07 06:09:23;;;;;;;38.10;23.20;;;;;;;-4.78;100.00;102698.09;5325436;28;20024;-78
2022/03/07 06:11:55;;;;;;;43.35;25.08;;;;;;;-4.63;100.00;102697.22;5322150;27;20126;-78
2022/03/07 06:14:26;;;;;;;34.38;21.52;;;;;;;-4.55;100.00;102700.69;5309281;28;20036;-78
2022/03/07 06:16:57;;;;;;;45.05;25.33;;;;;;;-4.75;100.00;102711.97;5306436;28;20028;-77
2022/03/07 06:19:28;;;;;;;42.15;24.38;;;;;;;-4.81;100.00;102713.69;5309427;28;20024;-77
2022/03/07 06:22:00;;;;;;;42.10;23.27;;;;;;;-4.91;100.00;102711.94;5325675;28;20016;-77
2022/03/07 06:24:31;;;;;;;37.63;24.13;;;;;;;-4.75;100.00;102716.31;5308262;28;20036;-77
2022/03/07 06:27:02;;;;;;;39.22;23.15;;;;;;;-4.78;100.00;102718.91;5326418;28;20044;-77
2022/03/07 06:29:34;;;;;;;36.53;23.17;;;;;;;-4.87;100.00;102705.84;5327619;28;20032;-77
2022/03/07 06:32:06;;;;;;;37.45;23.35;;;;;;;-5.02;100.00;102715.38;5327096;28;20063;-77
2022/03/07 06:34:37;;;;;;;37.90;23.55;;;;;;;-4.87;100.00;102722.38;5328211;28;20028;-77
2022/03/07 06:37:08;;;;;;;40.97;24.60;;;;;;;-4.70;100.00;102724.97;5327971;28;20036;-77
2022/03/07 06:39:39;;;;;;;41.30;25.40;;;;;;;-4.65;100.00;102722.38;5310158;28;20587;-77
2022/03/07 06:42:11;;;;;;;43.50;25.58;;;;;;;-4.54;100.00;102725.88;5326497;28;20191;-77
2022/03/07 06:44:42;;;;;;;46.67;25.17;;;;;;;-4.35;100.00;102731.06;5328154;28;20031;-77
2022/03/07 06:47:13;;;;;;;36.72;23.65;;;;;;;-4.16;100.00;102737.16;5327801;28;20024;-77
2022/03/07 06:49:47;;;;;;;42.88;25.58;;;;;;;-4.32;100.00;102731.09;5327815;28;20112;-77
2022/03/07 06:52:18;;;;;;;42.20;25.20;;;;;;;-4.23;100.00;102728.47;5327802;27;20060;-78
2022/03/07 06:54:50;;;;;;;40.20;25.23;;;;;;;-4.16;100.00;102732.78;5328082;28;20012;-78
2022/03/07 06:57:22;;;;;;;48.45;27.27;;;;;;;-4.06;100.00;102741.47;5323800;28;20020;-76
2022/03/07 06:59:53;;;;;;;41.63;26.42;;;;;;;-3.99;100.00;102743.22;5327178;28;20032;-77
2022/03/07 07:02:24;;;;;;;42.13;25.52;;;;;;;-4.00;100.00;102729.31;5330095;27;20023;-77
2022/03/07 07:04:56;;;;;;;40.78;27.02;;;;;;;-3.80;100.00;102747.50;5327865;28;20071;-78
2022/03/07 07:07:29;;;;;;;39.60;25.35;;;;;;;-3.68;100.00;102736.19;5328169;28;20031;-77
2022/03/07 07:10:00;;;;;;;45.50;27.50;;;;;;;-3.61;100.00;102724.84;5326864;28;20077;-77
2022/03/07 07:12:31;;;;;;;41.15;26.77;;;;;;;-3.54;100.00;102725.72;5319198;28;20435;-77
2022/03/07 07:15:04;;;;;;;39.72;25.42;;;;;;;-3.34;100.00;102735.19;5327780;28;20123;-77
2022/03/07 07:17:35;;;;;;;50.95;29.80;;;;;;;-2.61;100.00;102740.84;5325208;28;20480;-76
2022/03/07 07:20:10;;;;;;;52.65;32.92;;;;;;;-1.97;100.00;102735.06;5308334;28;20069;-76
2022/03/07 07:22:42;;;;;;;50.15;33.22;;;;;;;-1.02;100.00;102737.44;5327945;28;20031;-77
2022/03/07 07:25:13;;;;;;;57.33;34.38;;;;;;;-0.30;100.00;102736.34;5326101;28;20552;-77
2022/03/07 07:27:44;;;;;;;51.22;34.20;;;;;;;0.63;100.00;102724.06;5327875;28;20444;-78
2022/03/07 07:30:15;;;;;;;36.45;27.33;;;;;;;1.52;100.00;102732.56;5327817;28;20380;-78
2022/03/07 07:32:47;;;;;;;28.30;22.27;;;;;;;2.43;100.00;102728.41;5326976;28;20593;-78
2022/03/07 07:35:18;;;;;;;20.52;17.58;;;;;;;3.07;100.00;102730.06;5309149;28;20020;-79
2022/03/07 07:37:49;;;;;;;19.90;12.90;;;;;;;3.79;100.00;102734.75;5324570;28;20032;-79
2022/03/07 07:40:21;;;;;;;16.35;12.65;;;;;;;4.80;100.00;102727.56;5326934;28;20024;-79
2022/03/07 07:42:53;;;;;;;14.15;11.52;;;;;;;5.39;100.00;102714.69;5328008;28;20364;-79
2022/03/07 07:45:24;;;;;;;13.93;10.40;;;;;;;6.03;100.00;102713.78;5327720;28;20024;-79
2022/03/07 07:47:57;;;;;;;15.85;10.32;;;;;;;7.07;100.00;102713.44;5328277;28;20020;-79
2022/03/07 07:50:28;;;;;;;11.52;9.55;;;;;;;7.05;100.00;102722.41;5329131;27;20052;-79
2022/03/07 07:53:00;;;;;;;14.40;9.95;;;;;;;7.90;100.00;102727.88;5327927;28;20526;-79
2022/03/07 07:55:31;;;;;;;10.23;9.15;;;;;;;8.35;100.00;102728.25;5326223;28;20028;-78
2022/03/07 07:58:02;;;;;;;9.68;8.68;;;;;;;8.68;100.00;102714.94;5327154;28;20461;-78
2022/03/07 08:00:34;;;;;;;14.27;8.95;;;;;;;9.30;94.66;102729.28;5327228;28;20082;-79
2022/03/07 08:03:05;;;;;;;10.65;8.93;;;;;;;9.95;86.08;102726.34;5339828;27;20375;-79
2022/03/07 08:05:37;;;;;;;9.73;8.35;;;;;;;10.31;80.08;102719.69;5348451;27;20072;-79
2022/03/07 08:08:08;;;;;;;10.55;8.23;;;;;;;10.69;63.76;102727.16;5348411;27;20425;-79
2022/03/07 08:10:39;;;;;;;10.05;8.35;;;;;;;11.29;62.77;102723.28;5326507;27;20020;-79
2022/03/07 08:13:11;;;;;;;9.85;7.65;;;;;;;11.93;65.64;102734.19;5323525;28;20439;-79
2022/03/07 08:15:43;;;;;;;13.68;8.25;;;;;;;12.48;59.33;102730.34;5326266;28;20024;-79
2022/03/07 08:18:14;;;;;;;9.13;7.22;;;;;;;12.92;51.27;102727.22;5326638;28;20020;-80
2022/03/07 08:20:46;;;;;;;10.23;7.55;;;;;;;13.31;52.28;102731.50;5326398;28;20043;-80
2022/03/07 08:23:17;;;;;;;9.75;8.00;;;;;;;14.00;44.66;102723.56;5326863;28;20032;-80
2022/03/07 08:25:48;;;;;;;9.23;7.28;;;;;;;14.35;39.86;102721.78;5325050;28;20024;-80
2022/03/07 08:28:20;;;;;;;7.88;6.82;;;;;;;14.53;39.58;102717.66;5326868;28;20032;-80
2022/03/07 08:30:51;;;;;;;7.70;6.80;;;;;;;15.31;38.66;102731.91;5325107;28;20465;-80
2022/03/07 08:33:22;;;;;;;7.53;6.65;;;;;;;15.07;38.79;102723.19;5323864;28;20024;-80
2022/03/07 08:35:55;;;;;;;7.60;6.10;;;;;;;15.84;35.04;102730.25;5323237;28;20028;-80
2022/03/07 08:38:27;;;;;;;7.43;6.18;;;;;;;15.62;33.40;102723.97;5326547;28;20068;-80
2022/03/07 08:40:58;;;;;;;9.00;6.43;;;;;;;15.53;32.41;102742.72;5325290;28;20352;-80
2022/03/07 08:43:29;;;;;;;8.45;6.20;;;;;;;15.13;33.67;102723.56;5326346;28;20081;-80
2022/03/07 08:46:01;;;;;;;8.32;6.63;;;;;;;16.22;32.37;102736.88;5307842;28;20035;-80
2022/03/07 08:48:33;;;;;;;12.40;6.85;;;;;;;16.69;32.52;102720.16;5326160;28;20052;-80
2022/03/07 08:51:04;;;;;;;7.93;6.68;;;;;;;17.43;30.29;102714.38;5316541;27;20053;-81
2022/03/07 08:53:36;;;;;;;8.32;6.35;;;;;;;17.61;29.87;102716.34;5348282;27;20015;-80
2022/03/07 08:56:08;;;;;;;5.72;5.18;;;;;;;16.80;29.12;102718.22;5346886;27;20487;-80
2022/03/07 08:58:39;;;;;;;6.85;5.82;;;;;;;16.35;29.46;102725.84;5345886;27;20027;-80
2022/03/07 09:01:11;;;;;;;6.38;5.78;;;;;;;16.51;29.37;102704.66;5347100;27;20016;-80
2022/03/07 09:03:42;;;;;;;8.68;6.30;;;;;;;17.40;29.67;102706.56;5366274;27;20015;-80
2022/03/07 09:06:13;;;;;;;8.00;5.70;;;;;;;16.89;29.20;102705.78;5368306;27;20088;-80
2022/03/07 09:08:44;;;;;;;7.95;6.10;;;;;;;17.88;27.36;102700.28;5369230;27;20446;-80
2022/03/07 09:11:16;;;;;;;8.00;5.22;;;;;;;18.13;27.46;102704.19;5359672;27;20531;-80
2022/03/07 09:13:47;;;;;;;6.75;5.70;;;;;;;18.30;26.48;102707.97;5347580;27;20878;-80
2022/03/07 09:16:19;;;;;;;7.75;4.75;;;;;;;19.33;25.99;102698.84;5347099;27;20440;-80
2022/03/07 09:18:50;;;;;;;6.03;5.13;;;;;;;20.20;25.87;102710.66;5346859;27;20024;-80
2022/03/07 09:21:21;;;;;;;6.05;4.57;;;;;;;19.12;24.51;102699.13;5347121;27;20106;-80
2022/03/07 09:23:53;;;;;;;6.78;4.30;;;;;;;19.71;24.20;102704.91;5347250;27;20072;-80
2022/03/07 09:26:24;;;;;;;5.25;4.43;;;;;;;19.67;24.51;102701.66;5345952;27;20026;-80
2022/03/07 09:28:55;;;;;;;7.25;4.85;;;;;;;19.20;23.40;102700.06;5347179;27;20008;-80
2022/03/07 09:31:27;;;;;;;6.65;4.90;;;;;;;18.69;24.11;102694.25;5346683;27;20067;-80
2022/03/07 09:33:58;;;;;;;9.60;4.30;;;;;;;19.00;24.29;102693.94;5346681;27;20031;-80
2022/03/07 09:36:30;;;;;;;6.18;4.20;;;;;;;20.51;23.91;102688.44;5346461;27;20417;-81
2022/03/07 09:39:01;;;;;;;4.97;4.43;;;;;;;21.02;22.28;102689.31;5346669;27;20103;-81
2022/03/07 09:41:33;;;;;;;7.80;4.07;;;;;;;22.17;22.17;102696.53;5346081;27;20023;-81
2022/03/07 09:44:04;;;;;;;5.20;3.72;;;;;;;21.09;21.41;102690.34;5346013;27;20015;-81
2022/03/07 09:46:36;;;;;;;4.68;3.85;;;;;;;21.24;21.53;102689.66;5346715;27;20019;-81
2022/03/07 09:49:07;;;;;;;4.82;3.80;;;;;;;21.01;21.44;102692.19;5346561;27;20039;-81
2022/03/07 09:51:39;;;;;;;6.43;3.97;;;;;;;19.58;22.29;102681.81;5345910;27;20401;-81
2022/03/07 09:54:11;;;;;;;5.55;3.58;;;;;;;18.87;23.01;102691.63;5346484;27;20043;-81
2022/03/07 09:56:42;;;;;;;7.50;4.03;;;;;;;18.54;23.28;102681.41;5345599;27;20373;-81
2022/03/07 09:59:17;;;;;;;5.28;3.88;;;;;;;19.92;23.30;102681.03;5346467;27;20030;-81
2022/03/07 10:02:00;;;;;;;4.32;3.58;;;;;;;19.94;22.34;102683.59;5339326;27;20024;-81
2022/03/07 10:04:39;;;;;;;4.93;3.40;;;;;;;19.28;24.18;102683.06;5346089;27;20099;-81
2022/03/07 10:07:12;;;;;;;4.40;3.58;;;;;;;19.89;22.44;102664.28;5345923;27;20016;-81
2022/03/07 10:09:44;;;;;;;4.40;3.88;;;;;;;19.97;22.08;102662.47;5346244;27;20031;-81
2022/03/07 10:12:26;;;;;;;5.10;3.30;;;;;;;20.80;21.21;102668.25;5343797;27;20047;-81
2022/03/07 10:14:57;;;;;;;6.80;3.28;;;;;;;20.10;21.72;102669.28;5343701;27;20108;-81
2022/03/07 10:17:31;;;;;;;4.78;2.95;;;;;;;19.80;22.02;102666.06;5344728;27;20444;-81
2022/03/07 10:20:05;;;;;;;6.30;3.38;;;;;;;20.44;21.91;102655.75;5346451;27;20024;-81
2022/03/07 10:22:44;;;;;;;4.38;2.70;;;;;;;21.13;21.49;102661.84;5346670;27;20019;-81
2022/03/07 10:25:22;;;;;;;4.65;2.90;;;;;;;20.84;21.62;102647.91;5345071;27;20043;-81
2022/03/07 10:27:55;;;;;;;4.80;2.78;;;;;;;20.65;21.25;102649.03;5346619;27;20097;-81
2022/03/07 10:30:29;;;;;;;6.80;2.95;;;;;;;21.19;21.29;102654.88;5346719;27;20078;-81
2022/03/07 10:33:06;;;;;;;6.78;3.10;;;;;;;22.05;21.12;102642.59;5345290;27;20043;-81
2022/03/07 10:35:41;;;;;;;3.42;2.58;;;;;;;21.82;20.45;102641.63;5325065;27;20024;-81
2022/03/07 10:38:14;;;;;;;3.58;2.90;;;;;;;21.95;20.59;102639.22;5324591;27;20024;-81
2022/03/07 10:40:52;;;;;;;3.97;2.72;;;;;;;21.70;20.27;102647.44;5322981;28;20085;-81
2022/03/07 10:43:24;;;;;;;4.22;3.13;;;;;;;21.05;20.54;102637.41;5324661;27;20020;-81
2022/03/07 10:45:58;;;;;;;3.90;3.10;;;;;;;22.17;21.08;102625.88;5337252;27;20334;-81
2022/03/07 10:48:40;;;;;;;4.57;3.00;;;;;;;22.99;20.14;102623.53;5346028;27;20384;-81
2022/03/07 10:51:17;;;;;;;4.50;3.13;;;;;;;23.48;19.77;102621.47;5344559;27;20048;-81
2022/03/07 10:53:48;;;;;;;4.53;3.33;;;;;;;23.12;18.83;102628.41;5341984;27;20036;-81
2022/03/07 10:56:21;;;;;;;5.95;2.70;;;;;;;22.12;19.67;102614.69;5327289;27;20024;-81
2022/03/07 10:58:55;;;;;;;3.17;2.88;;;;;;;21.67;19.88;102592.63;5328051;27;20028;-81
2022/03/07 11:01:31;;;;;;;4.30;2.88;;;;;;;22.92;20.14;102603.53;5346497;27;20052;-81
2022/03/07 11:04:03;;;;;;;5.65;3.13;;;;;;;23.01;19.13;102596.16;5369185;27;20108;-82
2022/03/07 11:06:34;;;;;;;5.80;3.30;;;;;;;23.10;19.23;102594.25;5371185;27;20106;-82
2022/03/07 11:09:05;;;;;;;3.60;2.97;;;;;;;23.48;19.20;102597.78;5369915;27;20019;-81
2022/03/07 11:11:37;;;;;;;6.43;3.17;;;;;;;23.16;18.82;102599.81;5348538;27;20443;-81
2022/03/07 11:14:08;;;;;;;4.50;3.22;;;;;;;23.91;18.71;102580.81;5347537;27;31914;-81
2022/03/07 11:16:41;;;;;;;3.42;2.80;;;;;;;23.18;19.42;102588.75;5348077;27;20024;-82
2022/03/07 11:19:15;;;;;;;6.72;3.47;;;;;;;23.72;18.52;102590.38;5349267;27;20078;-81
2022/03/07 11:21:51;;;;;;;4.10;3.13;;;;;;;23.32;18.73;102587.91;5347699;27;20024;-81
2022/03/07 11:24:24;;;;;;;4.45;2.88;;;;;;;22.44;19.46;102587.38;5348832;27;20523;-79
2022/03/07 11:26:55;;;;;;;3.40;3.00;;;;;;;21.74;19.72;102585.47;5347647;27;20418;-79
2022/03/07 11:29:39;;;;;;;6.00;3.78;;;;;;;21.81;20.27;102564.72;5347380;27;20026;-79